sensor_id;sensor_type;location;lat;lon;timestamp;P1;durP1;ratioP1;P2;durP2;ratioP2
37609;SDS011;23457;51.966;8.230;2022-08-01T00:02:27;21.63;;;12.57;;
37609;SDS011;23457;51.966;8.230;2022-08-01T00:04:54;15.68;;;13.02;;
37609;SDS011;23457;51.966;8.230;2022-08-01T00:07:21;19.92;;;13.40;;
37609;SDS011;23457;51.966;8.230;2022-08-01T00:09:47;16.95;;;12.65;;
37609;SDS011;23457;51.966;8.230;2022-08-01T00:12:14;21.80;;;14.18;;
37609;SDS011;23457;51.966;8.230;2022-08-01T00:14:41;19.70;;;12.95;;
37609;SDS011;23457;51.966;8.230;2022-08-01T00:17:07;21.10;;;13.65;;
37609;SDS011;23457;51.966;8.230;2022-08-01T00:19:34;17.67;;;13.15;;
37609;SDS011;23457;51.966;8.230;2022-08-01T00:22:01;18.67;;;12.43;;
37609;SDS011;23457;51.966;8.230;2022-08-01T00:24:27;14.95;;;11.20;;
37609;SDS011;23457;51.966;8.230;2022-08-01T00:26:54;19.30;;;13.60;;
37609;SDS011;23457;51.966;8.230;2022-08-01T00:29:21;20.08;;;12.85;;
37609;SDS011;23457;51.966;8.230;2022-08-01T00:32:07;21.42;;;14.13;;
37609;SDS011;23457;51.966;8.230;2022-08-01T00:34:34;19.73;;;14.00;;
37609;SDS011;23457;51.966;8.230;2022-08-01T00:37:01;18.65;;;13.82;;
37609;SDS011;23457;51.966;8.230;2022-08-01T00:39:27;19.27;;;13.80;;
37609;SDS011;23457;51.966;8.230;2022-08-01T00:41:54;18.80;;;13.40;;
37609;SDS011;23457;51.966;8.230;2022-08-01T00:44:25;21.17;;;14.75;;
37609;SDS011;23457;51.966;8.230;2022-08-01T00:46:53;25.60;;;14.85;;
37609;SDS011;23457;51.966;8.230;2022-08-01T00:49:19;19.20;;;14.82;;
37609;SDS011;23457;51.966;8.230;2022-08-01T00:51:46;21.08;;;15.00;;
37609;SDS011;23457;51.966;8.230;2022-08-01T00:54:14;20.67;;;14.40;;
37609;SDS011;23457;51.966;8.230;2022-08-01T00:56:42;19.00;;;15.20;;
37609;SDS011;23457;51.966;8.230;2022-08-01T00:59:09;22.17;;;15.60;;
37609;SDS011;23457;51.966;8.230;2022-08-01T01:01:39;19.55;;;13.77;;
37609;SDS011;23457;51.966;8.230;2022-08-01T01:04:12;22.77;;;15.20;;
37609;SDS011;23457;51.966;8.230;2022-08-01T01:18:09;21.92;;;14.80;;
37609;SDS011;23457;51.966;8.230;2022-08-01T01:20:41;23.88;;;15.50;;
37609;SDS011;23457;51.966;8.230;2022-08-01T01:31:55;23.83;;;14.43;;
37609;SDS011;23457;51.966;8.230;2022-08-01T01:34:38;23.20;;;14.02;;
37609;SDS011;23457;51.966;8.230;2022-08-01T01:37:09;21.13;;;14.23;;
37609;SDS011;23457;51.966;8.230;2022-08-01T01:39:40;19.30;;;14.05;;
37609;SDS011;23457;51.966;8.230;2022-08-01T01:42:19;20.55;;;13.98;;
37609;SDS011;23457;51.966;8.230;2022-08-01T01:44:48;18.02;;;13.52;;
37609;SDS011;23457;51.966;8.230;2022-08-01T01:47:16;17.80;;;12.10;;
37609;SDS011;23457;51.966;8.230;2022-08-01T01:49:44;17.20;;;11.55;;
37609;SDS011;23457;51.966;8.230;2022-08-01T01:54:42;18.17;;;10.57;;
37609;SDS011;23457;51.966;8.230;2022-08-01T01:57:13;15.52;;;9.43;;
37609;SDS011;23457;51.966;8.230;2022-08-01T01:59:41;15.18;;;10.60;;
37609;SDS011;23457;51.966;8.230;2022-08-01T02:02:10;14.73;;;8.95;;
37609;SDS011;23457;51.966;8.230;2022-08-01T02:04:42;14.68;;;9.40;;
37609;SDS011;23457;51.966;8.230;2022-08-01T02:07:12;13.25;;;8.98;;
37609;SDS011;23457;51.966;8.230;2022-08-01T02:09:43;13.18;;;8.68;;
37609;SDS011;23457;51.966;8.230;2022-08-01T02:12:12;16.08;;;9.13;;
37609;SDS011;23457;51.966;8.230;2022-08-01T02:17:09;12.10;;;6.93;;
37609;SDS011;23457;51.966;8.230;2022-08-01T02:24:55;10.80;;;6.65;;
37609;SDS011;23457;51.966;8.230;2022-08-01T02:30:33;9.45;;;6.32;;
37609;SDS011;23457;51.966;8.230;2022-08-01T02:35:32;9.90;;;6.68;;
37609;SDS011;23457;51.966;8.230;2022-08-01T02:38:22;13.23;;;7.55;;
37609;SDS011;23457;51.966;8.230;2022-08-01T02:40:52;10.05;;;7.25;;
37609;SDS011;23457;51.966;8.230;2022-08-01T02:43:24;10.98;;;6.78;;
37609;SDS011;23457;51.966;8.230;2022-08-01T02:45:55;11.63;;;7.25;;
37609;SDS011;23457;51.966;8.230;2022-08-01T02:48:25;12.10;;;7.45;;
37609;SDS011;23457;51.966;8.230;2022-08-01T02:50:55;12.60;;;7.18;;
37609;SDS011;23457;51.966;8.230;2022-08-01T02:53:24;14.35;;;7.40;;
37609;SDS011;23457;51.966;8.230;2022-08-01T02:56:10;12.88;;;8.13;;
37609;SDS011;23457;51.966;8.230;2022-08-01T02:58:37;12.80;;;8.02;;
37609;SDS011;23457;51.966;8.230;2022-08-01T03:01:07;13.05;;;7.25;;
37609;SDS011;23457;51.966;8.230;2022-08-01T03:06:03;15.20;;;7.90;;
37609;SDS011;23457;51.966;8.230;2022-08-01T03:08:31;17.83;;;8.18;;
37609;SDS011;23457;51.966;8.230;2022-08-01T03:11:00;12.35;;;8.27;;
37609;SDS011;23457;51.966;8.230;2022-08-01T03:13:29;11.27;;;8.02;;
37609;SDS011;23457;51.966;8.230;2022-08-01T03:15:58;14.40;;;8.80;;
37609;SDS011;23457;51.966;8.230;2022-08-01T03:18:27;11.88;;;8.00;;
37609;SDS011;23457;51.966;8.230;2022-08-01T03:20:55;16.65;;;8.52;;
37609;SDS011;23457;51.966;8.230;2022-08-01T03:23:24;12.70;;;8.85;;
37609;SDS011;23457;51.966;8.230;2022-08-01T03:26:03;13.88;;;8.05;;
37609;SDS011;23457;51.966;8.230;2022-08-01T03:28:31;13.75;;;8.27;;
37609;SDS011;23457;51.966;8.230;2022-08-01T03:30:58;11.30;;;7.60;;
37609;SDS011;23457;51.966;8.230;2022-08-01T03:33:26;12.93;;;8.13;;
37609;SDS011;23457;51.966;8.230;2022-08-01T03:35:53;12.02;;;8.30;;
37609;SDS011;23457;51.966;8.230;2022-08-01T03:38:22;11.75;;;8.50;;
37609;SDS011;23457;51.966;8.230;2022-08-01T03:41:02;11.68;;;8.45;;
37609;SDS011;23457;51.966;8.230;2022-08-01T03:43:37;16.00;;;8.57;;
37609;SDS011;23457;51.966;8.230;2022-08-01T03:46:09;13.40;;;8.20;;
37609;SDS011;23457;51.966;8.230;2022-08-01T03:48:40;15.40;;;8.90;;
37609;SDS011;23457;51.966;8.230;2022-08-01T03:51:13;14.30;;;8.95;;
37609;SDS011;23457;51.966;8.230;2022-08-01T03:53:41;15.45;;;8.38;;
37609;SDS011;23457;51.966;8.230;2022-08-01T03:56:08;16.13;;;8.80;;
37609;SDS011;23457;51.966;8.230;2022-08-01T03:58:38;14.98;;;8.90;;
37609;SDS011;23457;51.966;8.230;2022-08-01T04:01:06;16.38;;;9.60;;
37609;SDS011;23457;51.966;8.230;2022-08-01T04:03:41;15.35;;;9.93;;
37609;SDS011;23457;51.966;8.230;2022-08-01T04:06:08;12.07;;;8.93;;
37609;SDS011;23457;51.966;8.230;2022-08-01T04:08:37;13.80;;;7.93;;
37609;SDS011;23457;51.966;8.230;2022-08-01T04:11:04;17.02;;;9.45;;
37609;SDS011;23457;51.966;8.230;2022-08-01T04:13:31;14.95;;;8.73;;
37609;SDS011;23457;51.966;8.230;2022-08-01T04:16:03;14.60;;;9.45;;
37609;SDS011;23457;51.966;8.230;2022-08-01T04:18:30;12.93;;;8.80;;
37609;SDS011;23457;51.966;8.230;2022-08-01T04:20:56;12.00;;;8.50;;
37609;SDS011;23457;51.966;8.230;2022-08-01T04:23:24;12.18;;;9.10;;
37609;SDS011;23457;51.966;8.230;2022-08-01T04:25:52;12.63;;;9.02;;
37609;SDS011;23457;51.966;8.230;2022-08-01T04:28:21;14.47;;;8.90;;
37609;SDS011;23457;51.966;8.230;2022-08-01T04:30:48;16.00;;;10.23;;
37609;SDS011;23457;51.966;8.230;2022-08-01T04:33:18;16.77;;;10.00;;
37609;SDS011;23457;51.966;8.230;2022-08-01T04:35:46;15.18;;;10.30;;
37609;SDS011;23457;51.966;8.230;2022-08-01T04:38:30;16.95;;;11.13;;
37609;SDS011;23457;51.966;8.230;2022-08-01T04:40:59;18.67;;;11.57;;
37609;SDS011;23457;51.966;8.230;2022-08-01T04:43:35;19.30;;;11.38;;
37609;SDS011;23457;51.966;8.230;2022-08-01T04:46:03;21.85;;;11.55;;
37609;SDS011;23457;51.966;8.230;2022-08-01T04:48:31;19.27;;;11.30;;
37609;SDS011;23457;51.966;8.230;2022-08-01T04:51:00;18.17;;;11.43;;
37609;SDS011;23457;51.966;8.230;2022-08-01T04:53:28;16.42;;;11.23;;
37609;SDS011;23457;51.966;8.230;2022-08-01T04:55:54;19.83;;;10.77;;
37609;SDS011;23457;51.966;8.230;2022-08-01T04:58:21;18.77;;;10.65;;
37609;SDS011;23457;51.966;8.230;2022-08-01T05:00:48;15.55;;;10.25;;
37609;SDS011;23457;51.966;8.230;2022-08-01T05:03:14;15.13;;;9.32;;
37609;SDS011;23457;51.966;8.230;2022-08-01T05:05:41;19.27;;;9.40;;
37609;SDS011;23457;51.966;8.230;2022-08-01T05:08:08;12.45;;;9.35;;
37609;SDS011;23457;51.966;8.230;2022-08-01T05:10:34;14.35;;;8.73;;
37609;SDS011;23457;51.966;8.230;2022-08-01T05:13:00;11.38;;;7.18;;
37609;SDS011;23457;51.966;8.230;2022-08-01T05:15:27;9.20;;;6.38;;
37609;SDS011;23457;51.966;8.230;2022-08-01T05:17:54;8.32;;;6.13;;
37609;SDS011;23457;51.966;8.230;2022-08-01T05:20:21;9.63;;;5.72;;
37609;SDS011;23457;51.966;8.230;2022-08-01T05:22:47;8.98;;;5.50;;
37609;SDS011;23457;51.966;8.230;2022-08-01T05:25:14;7.82;;;5.63;;
37609;SDS011;23457;51.966;8.230;2022-08-01T05:27:45;8.23;;;5.28;;
37609;SDS011;23457;51.966;8.230;2022-08-01T05:30:14;9.32;;;6.38;;
37609;SDS011;23457;51.966;8.230;2022-08-01T05:32:41;9.23;;;5.30;;
37609;SDS011;23457;51.966;8.230;2022-08-01T05:35:08;9.00;;;6.10;;
37609;SDS011;23457;51.966;8.230;2022-08-01T05:37:35;9.15;;;6.07;;
37609;SDS011;23457;51.966;8.230;2022-08-01T05:40:01;9.32;;;6.72;;
37609;SDS011;23457;51.966;8.230;2022-08-01T05:42:28;8.30;;;6.35;;
37609;SDS011;23457;51.966;8.230;2022-08-01T05:44:55;8.73;;;6.60;;
37609;SDS011;23457;51.966;8.230;2022-08-01T05:47:22;11.50;;;6.78;;
37609;SDS011;23457;51.966;8.230;2022-08-01T05:49:49;9.13;;;6.20;;
37609;SDS011;23457;51.966;8.230;2022-08-01T05:52:15;9.73;;;7.18;;
37609;SDS011;23457;51.966;8.230;2022-08-01T05:54:42;9.30;;;7.25;;
37609;SDS011;23457;51.966;8.230;2022-08-01T05:57:08;13.18;;;8.10;;
37609;SDS011;23457;51.966;8.230;2022-08-01T05:59:37;9.23;;;7.88;;
37609;SDS011;23457;51.966;8.230;2022-08-01T06:02:04;10.77;;;7.35;;
37609;SDS011;23457;51.966;8.230;2022-08-01T06:04:31;11.50;;;8.07;;
37609;SDS011;23457;51.966;8.230;2022-08-01T06:06:57;10.05;;;6.88;;
37609;SDS011;23457;51.966;8.230;2022-08-01T06:09:24;9.57;;;7.68;;
37609;SDS011;23457;51.966;8.230;2022-08-01T06:11:51;10.70;;;7.50;;
37609;SDS011;23457;51.966;8.230;2022-08-01T06:14:17;10.18;;;7.70;;
37609;SDS011;23457;51.966;8.230;2022-08-01T06:16:44;10.50;;;8.35;;
37609;SDS011;23457;51.966;8.230;2022-08-01T06:19:10;11.68;;;7.53;;
37609;SDS011;23457;51.966;8.230;2022-08-01T06:21:37;11.40;;;9.15;;
37609;SDS011;23457;51.966;8.230;2022-08-01T06:24:03;11.60;;;8.98;;
37609;SDS011;23457;51.966;8.230;2022-08-01T06:26:30;10.82;;;8.43;;
37609;SDS011;23457;51.966;8.230;2022-08-01T06:28:57;12.90;;;9.30;;
37609;SDS011;23457;51.966;8.230;2022-08-01T06:31:24;12.50;;;9.73;;
37609;SDS011;23457;51.966;8.230;2022-08-01T06:33:54;12.75;;;8.95;;
37609;SDS011;23457;51.966;8.230;2022-08-01T06:36:23;11.32;;;9.63;;
37609;SDS011;23457;51.966;8.230;2022-08-01T06:38:49;14.68;;;10.80;;
37609;SDS011;23457;51.966;8.230;2022-08-01T06:41:16;12.90;;;10.43;;
37609;SDS011;23457;51.966;8.230;2022-08-01T06:43:42;14.95;;;11.30;;
37609;SDS011;23457;51.966;8.230;2022-08-01T06:46:09;14.50;;;10.30;;
37609;SDS011;23457;51.966;8.230;2022-08-01T06:48:36;14.57;;;11.38;;
37609;SDS011;23457;51.966;8.230;2022-08-01T06:51:05;14.05;;;11.30;;
37609;SDS011;23457;51.966;8.230;2022-08-01T06:53:35;13.68;;;10.43;;
37609;SDS011;23457;51.966;8.230;2022-08-01T06:56:03;11.88;;;10.00;;
37609;SDS011;23457;51.966;8.230;2022-08-01T06:58:31;11.80;;;10.05;;
37609;SDS011;23457;51.966;8.230;2022-08-01T07:00:57;12.60;;;9.07;;
37609;SDS011;23457;51.966;8.230;2022-08-01T07:03:25;14.35;;;8.77;;
37609;SDS011;23457;51.966;8.230;2022-08-01T07:06:11;9.32;;;8.05;;
37609;SDS011;23457;51.966;8.230;2022-08-01T07:08:40;8.90;;;8.00;;
37609;SDS011;23457;51.966;8.230;2022-08-01T07:11:07;9.15;;;7.75;;
37609;SDS011;23457;51.966;8.230;2022-08-01T07:13:34;9.13;;;7.78;;
37609;SDS011;23457;51.966;8.230;2022-08-01T07:16:09;10.35;;;6.85;;
37609;SDS011;23457;51.966;8.230;2022-08-01T07:18:35;8.82;;;6.85;;
37609;SDS011;23457;51.966;8.230;2022-08-01T07:21:02;7.07;;;6.18;;
37609;SDS011;23457;51.966;8.230;2022-08-01T07:23:30;10.32;;;5.60;;
37609;SDS011;23457;51.966;8.230;2022-08-01T07:26:02;6.00;;;5.50;;
37609;SDS011;23457;51.966;8.230;2022-08-01T07:28:29;6.97;;;6.10;;
37609;SDS011;23457;51.966;8.230;2022-08-01T07:30:56;6.30;;;5.70;;
37609;SDS011;23457;51.966;8.230;2022-08-01T07:33:23;7.35;;;5.90;;
37609;SDS011;23457;51.966;8.230;2022-08-01T07:35:49;6.70;;;6.00;;
37609;SDS011;23457;51.966;8.230;2022-08-01T07:38:16;7.40;;;5.43;;
37609;SDS011;23457;51.966;8.230;2022-08-01T07:40:43;6.57;;;5.57;;
37609;SDS011;23457;51.966;8.230;2022-08-01T07:43:10;8.05;;;6.20;;
37609;SDS011;23457;51.966;8.230;2022-08-01T07:45:37;9.02;;;5.85;;
37609;SDS011;23457;51.966;8.230;2022-08-01T07:48:09;10.93;;;6.40;;
37609;SDS011;23457;51.966;8.230;2022-08-01T07:50:35;9.90;;;7.07;;
37609;SDS011;23457;51.966;8.230;2022-08-01T07:53:02;7.20;;;6.47;;
37609;SDS011;23457;51.966;8.230;2022-08-01T07:55:29;6.25;;;5.65;;
37609;SDS011;23457;51.966;8.230;2022-08-01T07:57:56;3.53;;;2.58;;
37609;SDS011;23457;51.966;8.230;2022-08-01T08:00:23;3.08;;;2.50;;
37609;SDS011;23457;51.966;8.230;2022-08-01T08:02:49;2.70;;;2.50;;
37609;SDS011;23457;51.966;8.230;2022-08-01T08:05:16;3.55;;;2.85;;
37609;SDS011;23457;51.966;8.230;2022-08-01T08:08:06;6.40;;;2.70;;
37609;SDS011;23457;51.966;8.230;2022-08-01T08:10:34;3.00;;;2.80;;
37609;SDS011;23457;51.966;8.230;2022-08-01T08:13:01;5.32;;;3.17;;
37609;SDS011;23457;51.966;8.230;2022-08-01T08:15:28;4.60;;;3.28;;
37609;SDS011;23457;51.966;8.230;2022-08-01T08:17:55;4.32;;;2.97;;
37609;SDS011;23457;51.966;8.230;2022-08-01T08:20:22;3.20;;;3.00;;
37609;SDS011;23457;51.966;8.230;2022-08-01T08:22:51;3.97;;;3.40;;
37609;SDS011;23457;51.966;8.230;2022-08-01T08:25:17;5.05;;;3.30;;
37609;SDS011;23457;51.966;8.230;2022-08-01T08:27:52;5.68;;;3.08;;
37609;SDS011;23457;51.966;8.230;2022-08-01T08:30:19;5.80;;;3.60;;
37609;SDS011;23457;51.966;8.230;2022-08-01T08:32:47;4.45;;;3.80;;
37609;SDS011;23457;51.966;8.230;2022-08-01T08:35:14;4.15;;;3.08;;
37609;SDS011;23457;51.966;8.230;2022-08-01T08:38:03;2.72;;;2.53;;
37609;SDS011;23457;51.966;8.230;2022-08-01T08:40:32;3.72;;;2.67;;
37609;SDS011;23457;51.966;8.230;2022-08-01T08:43:05;3.78;;;2.70;;
37609;SDS011;23457;51.966;8.230;2022-08-01T08:45:32;3.33;;;2.22;;
37609;SDS011;23457;51.966;8.230;2022-08-01T08:48:19;5.13;;;2.60;;
37609;SDS011;23457;51.966;8.230;2022-08-01T08:50:53;2.53;;;2.33;;
37609;SDS011;23457;51.966;8.230;2022-08-01T08:53:20;2.42;;;1.90;;
37609;SDS011;23457;51.966;8.230;2022-08-01T08:55:48;3.28;;;1.65;;
37609;SDS011;23457;51.966;8.230;2022-08-01T08:58:21;2.00;;;1.80;;
37609;SDS011;23457;51.966;8.230;2022-08-01T09:00:57;2.13;;;1.60;;
37609;SDS011;23457;51.966;8.230;2022-08-01T09:03:25;3.20;;;1.55;;
37609;SDS011;23457;51.966;8.230;2022-08-01T09:05:52;2.08;;;1.58;;
37609;SDS011;23457;51.966;8.230;2022-08-01T09:08:19;3.35;;;1.77;;
37609;SDS011;23457;51.966;8.230;2022-08-01T09:10:45;5.38;;;1.60;;
37609;SDS011;23457;51.966;8.230;2022-08-01T09:13:13;3.70;;;1.70;;
37609;SDS011;23457;51.966;8.230;2022-08-01T09:15:45;2.17;;;1.65;;
37609;SDS011;23457;51.966;8.230;2022-08-01T09:21:13;2.53;;;1.33;;
37609;SDS011;23457;51.966;8.230;2022-08-01T09:23:47;3.33;;;1.85;;
37609;SDS011;23457;51.966;8.230;2022-08-01T09:26:33;3.13;;;1.63;;
37609;SDS011;23457;51.966;8.230;2022-08-01T09:29:03;2.85;;;1.80;;
37609;SDS011;23457;51.966;8.230;2022-08-01T09:31:41;3.97;;;1.90;;
37609;SDS011;23457;51.966;8.230;2022-08-01T09:34:13;4.15;;;2.20;;
37609;SDS011;23457;51.966;8.230;2022-08-01T09:39:20;3.05;;;2.60;;
37609;SDS011;23457;51.966;8.230;2022-08-01T09:41:55;3.83;;;2.40;;
37609;SDS011;23457;51.966;8.230;2022-08-01T09:44:37;2.38;;;2.10;;
37609;SDS011;23457;51.966;8.230;2022-08-01T09:47:10;5.93;;;2.55;;
37609;SDS011;23457;51.966;8.230;2022-08-01T09:49:41;3.33;;;2.42;;
37609;SDS011;23457;51.966;8.230;2022-08-01T09:52:21;4.10;;;2.30;;
37609;SDS011;23457;51.966;8.230;2022-08-01T09:54:55;4.38;;;2.45;;
37609;SDS011;23457;51.966;8.230;2022-08-01T09:57:23;4.90;;;2.30;;
37609;SDS011;23457;51.966;8.230;2022-08-01T09:59:51;3.40;;;2.00;;
37609;SDS011;23457;51.966;8.230;2022-08-01T10:02:36;3.50;;;2.10;;
37609;SDS011;23457;51.966;8.230;2022-08-01T10:05:06;4.10;;;2.10;;
37609;SDS011;23457;51.966;8.230;2022-08-01T10:07:36;3.47;;;2.28;;
37609;SDS011;23457;51.966;8.230;2022-08-01T10:10:23;3.78;;;2.10;;
37609;SDS011;23457;51.966;8.230;2022-08-01T10:12:55;3.47;;;1.88;;
37609;SDS011;23457;51.966;8.230;2022-08-01T10:15:23;3.53;;;2.35;;
37609;SDS011;23457;51.966;8.230;2022-08-01T10:20:46;3.05;;;2.38;;
37609;SDS011;23457;51.966;8.230;2022-08-01T10:23:13;4.15;;;1.95;;
37609;SDS011;23457;51.966;8.230;2022-08-01T10:25:41;1.90;;;1.80;;
37609;SDS011;23457;51.966;8.230;2022-08-01T10:28:16;5.47;;;1.98;;
37609;SDS011;23457;51.966;8.230;2022-08-01T10:30:49;3.03;;;1.77;;
37609;SDS011;23457;51.966;8.230;2022-08-01T10:33:20;2.38;;;1.48;;
37609;SDS011;23457;51.966;8.230;2022-08-01T10:36:08;2.95;;;2.35;;
37609;SDS011;23457;51.966;8.230;2022-08-01T10:38:36;2.00;;;1.60;;
37609;SDS011;23457;51.966;8.230;2022-08-01T10:41:04;3.63;;;1.77;;
37609;SDS011;23457;51.966;8.230;2022-08-01T10:43:34;2.28;;;1.58;;
37609;SDS011;23457;51.966;8.230;2022-08-01T10:46:02;2.92;;;2.47;;
37609;SDS011;23457;51.966;8.230;2022-08-01T10:51:19;5.00;;;2.28;;
37609;SDS011;23457;51.966;8.230;2022-08-01T10:54:10;2.53;;;2.10;;
37609;SDS011;23457;51.966;8.230;2022-08-01T10:56:46;2.72;;;2.33;;
37609;SDS011;23457;51.966;8.230;2022-08-01T10:59:21;3.08;;;2.50;;
37609;SDS011;23457;51.966;8.230;2022-08-01T11:02:13;6.40;;;2.83;;
37609;SDS011;23457;51.966;8.230;2022-08-01T11:04:58;4.43;;;3.38;;
37609;SDS011;23457;51.966;8.230;2022-08-01T11:08:03;7.13;;;3.65;;
37609;SDS011;23457;51.966;8.230;2022-08-01T11:10:25;4.15;;;3.75;;
37609;SDS011;23457;51.966;8.230;2022-08-01T11:13:00;5.85;;;4.20;;
37609;SDS011;23457;51.966;8.230;2022-08-01T11:15:31;5.22;;;4.35;;
37609;SDS011;23457;51.966;8.230;2022-08-01T11:17:59;7.07;;;4.80;;
37609;SDS011;23457;51.966;8.230;2022-08-01T11:20:28;8.10;;;4.85;;
37609;SDS011;23457;51.966;8.230;2022-08-01T11:28:24;8.02;;;5.50;;
37609;SDS011;23457;51.966;8.230;2022-08-01T11:38:42;9.90;;;6.03;;
37609;SDS011;23457;51.966;8.230;2022-08-01T11:49:47;9.98;;;4.38;;
37609;SDS011;23457;51.966;8.230;2022-08-01T11:54:52;7.75;;;3.80;;
37609;SDS011;23457;51.966;8.230;2022-08-01T11:57:24;5.22;;;4.30;;
37609;SDS011;23457;51.966;8.230;2022-08-01T12:00:00;6.75;;;4.30;;
37609;SDS011;23457;51.966;8.230;2022-08-01T12:02:34;5.32;;;4.20;;
37609;SDS011;23457;51.966;8.230;2022-08-01T12:05:11;6.97;;;4.00;;
37609;SDS011;23457;51.966;8.230;2022-08-01T12:07:44;4.82;;;4.13;;
37609;SDS011;23457;51.966;8.230;2022-08-01T12:10:19;7.35;;;4.18;;
37609;SDS011;23457;51.966;8.230;2022-08-01T12:12:51;5.60;;;3.75;;
37609;SDS011;23457;51.966;8.230;2022-08-01T12:15:20;7.43;;;4.50;;
37609;SDS011;23457;51.966;8.230;2022-08-01T12:17:50;5.25;;;4.75;;
37609;SDS011;23457;51.966;8.230;2022-08-01T12:20:32;7.60;;;4.30;;
37609;SDS011;23457;51.966;8.230;2022-08-01T12:23:04;9.65;;;4.60;;
37609;SDS011;23457;51.966;8.230;2022-08-01T12:25:35;6.40;;;4.95;;
37609;SDS011;23457;51.966;8.230;2022-08-01T12:28:11;7.25;;;5.07;;
37609;SDS011;23457;51.966;8.230;2022-08-01T12:30:41;5.77;;;4.80;;
37609;SDS011;23457;51.966;8.230;2022-08-01T12:33:09;8.00;;;4.55;;
37609;SDS011;23457;51.966;8.230;2022-08-01T12:35:37;9.47;;;4.90;;
37609;SDS011;23457;51.966;8.230;2022-08-01T12:38:15;6.30;;;4.53;;
37609;SDS011;23457;51.966;8.230;2022-08-01T12:40:49;8.38;;;5.18;;
37609;SDS011;23457;51.966;8.230;2022-08-01T12:43:20;6.20;;;5.28;;
37609;SDS011;23457;51.966;8.230;2022-08-01T12:45:54;9.50;;;5.57;;
37609;SDS011;23457;51.966;8.230;2022-08-01T12:48:23;6.70;;;5.00;;
37609;SDS011;23457;51.966;8.230;2022-08-01T12:50:51;9.52;;;5.28;;
37609;SDS011;23457;51.966;8.230;2022-08-01T12:53:19;6.93;;;4.60;;
37609;SDS011;23457;51.966;8.230;2022-08-01T12:55:48;8.87;;;4.23;;
37609;SDS011;23457;51.966;8.230;2022-08-01T12:58:29;7.72;;;4.22;;
37609;SDS011;23457;51.966;8.230;2022-08-01T13:01:05;5.82;;;4.50;;
37609;SDS011;23457;51.966;8.230;2022-08-01T13:03:34;7.45;;;4.70;;
37609;SDS011;23457;51.966;8.230;2022-08-01T13:06:00;8.35;;;5.18;;
37609;SDS011;23457;51.966;8.230;2022-08-01T13:11:06;4.30;;;2.95;;
37609;SDS011;23457;51.966;8.230;2022-08-01T13:13:50;5.88;;;3.22;;
37609;SDS011;23457;51.966;8.230;2022-08-01T13:16:19;4.32;;;2.70;;
37609;SDS011;23457;51.966;8.230;2022-08-01T13:18:59;3.33;;;2.58;;
37609;SDS011;23457;51.966;8.230;2022-08-01T13:21:27;4.15;;;2.95;;
37609;SDS011;23457;51.966;8.230;2022-08-01T13:24:15;4.00;;;2.72;;
37609;SDS011;23457;51.966;8.230;2022-08-01T13:26:44;6.22;;;2.92;;
37609;SDS011;23457;51.966;8.230;2022-08-01T13:29:18;4.03;;;3.08;;
37609;SDS011;23457;51.966;8.230;2022-08-01T13:31:47;4.18;;;2.92;;
37609;SDS011;23457;51.966;8.230;2022-08-01T13:34:14;4.40;;;2.83;;
37609;SDS011;23457;51.966;8.230;2022-08-01T13:36:41;3.78;;;2.70;;
37609;SDS011;23457;51.966;8.230;2022-08-01T13:39:14;3.97;;;2.63;;
37609;SDS011;23457;51.966;8.230;2022-08-01T13:42:00;4.60;;;3.13;;
37609;SDS011;23457;51.966;8.230;2022-08-01T13:44:26;4.07;;;3.35;;
37609;SDS011;23457;51.966;8.230;2022-08-01T13:46:53;4.50;;;3.30;;
37609;SDS011;23457;51.966;8.230;2022-08-01T13:49:20;4.85;;;3.13;;
37609;SDS011;23457;51.966;8.230;2022-08-01T13:51:48;5.72;;;3.55;;
37609;SDS011;23457;51.966;8.230;2022-08-01T13:54:16;10.73;;;3.30;;
37609;SDS011;23457;51.966;8.230;2022-08-01T13:56:43;6.65;;;4.32;;
37609;SDS011;23457;51.966;8.230;2022-08-01T13:59:10;6.07;;;3.60;;
37609;SDS011;23457;51.966;8.230;2022-08-01T14:01:36;3.75;;;3.40;;
37609;SDS011;23457;51.966;8.230;2022-08-01T14:04:03;4.75;;;3.67;;
37609;SDS011;23457;51.966;8.230;2022-08-01T14:06:31;6.07;;;2.95;;
37609;SDS011;23457;51.966;8.230;2022-08-01T14:08:58;4.60;;;3.20;;
37609;SDS011;23457;51.966;8.230;2022-08-01T14:11:26;5.93;;;3.40;;
37609;SDS011;23457;51.966;8.230;2022-08-01T14:13:59;4.28;;;2.75;;
37609;SDS011;23457;51.966;8.230;2022-08-01T14:16:25;4.95;;;3.55;;
37609;SDS011;23457;51.966;8.230;2022-08-01T14:18:52;6.25;;;3.20;;
37609;SDS011;23457;51.966;8.230;2022-08-01T14:21:18;4.97;;;3.42;;
37609;SDS011;23457;51.966;8.230;2022-08-01T14:23:45;4.47;;;4.07;;
37609;SDS011;23457;51.966;8.230;2022-08-01T14:26:12;4.80;;;3.40;;
37609;SDS011;23457;51.966;8.230;2022-08-01T14:28:38;5.95;;;3.20;;
37609;SDS011;23457;51.966;8.230;2022-08-01T14:31:06;5.60;;;3.00;;
37609;SDS011;23457;51.966;8.230;2022-08-01T14:33:33;4.75;;;3.33;;
37609;SDS011;23457;51.966;8.230;2022-08-01T14:36:00;5.38;;;3.03;;
37609;SDS011;23457;51.966;8.230;2022-08-01T14:38:47;6.07;;;3.47;;
37609;SDS011;23457;51.966;8.230;2022-08-01T14:41:13;6.97;;;3.45;;
37609;SDS011;23457;51.966;8.230;2022-08-01T14:43:40;5.55;;;3.50;;
37609;SDS011;23457;51.966;8.230;2022-08-01T14:46:07;5.03;;;3.70;;
37609;SDS011;23457;51.966;8.230;2022-08-01T14:48:35;3.23;;;2.93;;
37609;SDS011;23457;51.966;8.230;2022-08-01T14:51:02;5.45;;;3.03;;
37609;SDS011;23457;51.966;8.230;2022-08-01T14:53:30;5.90;;;3.70;;
37609;SDS011;23457;51.966;8.230;2022-08-01T14:56:03;5.78;;;3.95;;
37609;SDS011;23457;51.966;8.230;2022-08-01T14:58:30;5.13;;;4.18;;
37609;SDS011;23457;51.966;8.230;2022-08-01T15:00:56;5.47;;;4.15;;
37609;SDS011;23457;51.966;8.230;2022-08-01T15:03:24;6.22;;;4.00;;
37609;SDS011;23457;51.966;8.230;2022-08-01T15:05:51;5.78;;;3.95;;
37609;SDS011;23457;51.966;8.230;2022-08-01T15:08:18;5.00;;;3.85;;
37609;SDS011;23457;51.966;8.230;2022-08-01T15:10:44;7.22;;;4.35;;
37609;SDS011;23457;51.966;8.230;2022-08-01T15:13:11;3.97;;;3.45;;
37609;SDS011;23457;51.966;8.230;2022-08-01T15:15:38;4.70;;;3.40;;
37609;SDS011;23457;51.966;8.230;2022-08-01T15:18:04;7.35;;;4.18;;
37609;SDS011;23457;51.966;8.230;2022-08-01T15:20:31;3.88;;;3.35;;
37609;SDS011;23457;51.966;8.230;2022-08-01T15:22:58;6.30;;;3.80;;
37609;SDS011;23457;51.966;8.230;2022-08-01T15:25:26;5.68;;;3.80;;
37609;SDS011;23457;51.966;8.230;2022-08-01T15:28:07;6.53;;;3.90;;
37609;SDS011;23457;51.966;8.230;2022-08-01T15:30:35;5.15;;;3.38;;
37609;SDS011;23457;51.966;8.230;2022-08-01T15:33:02;6.55;;;3.78;;
37609;SDS011;23457;51.966;8.230;2022-08-01T15:35:29;6.65;;;4.00;;
37609;SDS011;23457;51.966;8.230;2022-08-01T15:37:56;4.88;;;3.95;;
37609;SDS011;23457;51.966;8.230;2022-08-01T15:40:22;12.02;;;4.95;;
37609;SDS011;23457;51.966;8.230;2022-08-01T15:42:49;6.97;;;4.10;;
37609;SDS011;23457;51.966;8.230;2022-08-01T15:45:15;6.38;;;4.57;;
37609;SDS011;23457;51.966;8.230;2022-08-01T15:48:07;5.30;;;3.65;;
37609;SDS011;23457;51.966;8.230;2022-08-01T15:50:33;4.65;;;3.05;;
37609;SDS011;23457;51.966;8.230;2022-08-01T15:53:00;5.45;;;3.38;;
37609;SDS011;23457;51.966;8.230;2022-08-01T15:55:27;6.43;;;3.47;;
37609;SDS011;23457;51.966;8.230;2022-08-01T15:57:54;7.07;;;3.33;;
37609;SDS011;23457;51.966;8.230;2022-08-01T16:00:21;4.55;;;3.30;;
37609;SDS011;23457;51.966;8.230;2022-08-01T16:02:48;6.60;;;3.50;;
37609;SDS011;23457;51.966;8.230;2022-08-01T16:05:14;7.45;;;3.42;;
37609;SDS011;23457;51.966;8.230;2022-08-01T16:07:45;4.60;;;2.92;;
37609;SDS011;23457;51.966;8.230;2022-08-01T16:10:27;4.20;;;2.58;;
37609;SDS011;23457;51.966;8.230;2022-08-01T16:12:54;5.45;;;3.00;;
37609;SDS011;23457;51.966;8.230;2022-08-01T16:15:21;7.85;;;2.75;;